createdAt,value
2022-07-25T00:02:59.787Z,8.77
2022-07-25T00:08:02.293Z,7.93
2022-07-25T00:13:04.564Z,10.20
2022-07-25T00:18:06.687Z,6.43
2022-07-25T00:23:08.851Z,7.70
2022-07-25T00:28:10.913Z,6.78
2022-07-25T00:33:13.016Z,7.30
2022-07-25T00:38:15.439Z,6.57
2022-07-25T00:43:17.489Z,7.65
2022-07-25T00:48:19.496Z,7.20
2022-07-25T00:53:22.748Z,8.98
2022-07-25T00:58:24.768Z,8.18
2022-07-25T01:03:27.409Z,7.60
2022-07-25T01:08:30.308Z,7.03
2022-07-25T01:13:34.484Z,8.18
2022-07-25T01:18:37.087Z,9.70
2022-07-25T01:23:39.141Z,7.45
2022-07-25T01:28:41.324Z,9.43
2022-07-25T01:33:43.361Z,7.45
2022-07-25T01:38:45.455Z,7.25
2022-07-25T01:43:47.546Z,7.00
2022-07-25T01:48:49.723Z,10.25
2022-07-25T01:53:51.988Z,9.32
2022-07-25T01:58:54.099Z,11.30
2022-07-25T02:03:56.215Z,7.70
2022-07-25T02:08:58.327Z,8.23
2022-07-25T02:14:00.486Z,7.53
2022-07-25T02:19:02.630Z,9.82
2022-07-25T02:24:05.253Z,8.88
2022-07-25T02:29:07.654Z,7.47
2022-07-25T02:34:10.011Z,8.05
2022-07-25T02:39:12.687Z,8.93
2022-07-25T02:44:14.764Z,7.03
2022-07-25T02:49:16.925Z,8.52
2022-07-25T02:54:20.028Z,7.57
2022-07-25T02:59:22.178Z,8.35
2022-07-25T03:04:24.216Z,8.43
2022-07-25T03:09:26.399Z,10.82
2022-07-25T03:14:28.504Z,8.75
2022-07-25T03:19:30.543Z,7.88
2022-07-25T03:24:32.723Z,8.27
2022-07-25T03:29:34.793Z,7.82
2022-07-25T03:35:02.362Z,8.68
2022-07-25T03:40:27.465Z,9.60
2022-07-25T03:45:48.466Z,10.52
2022-07-25T03:51:09.327Z,8.20
2022-07-25T03:56:43.344Z,7.77
2022-07-25T04:01:48.149Z,12.40
2022-07-25T04:06:50.304Z,7.75
2022-07-25T04:11:52.310Z,9.98
2022-07-25T04:16:54.450Z,8.98
2022-07-25T04:21:56.653Z,9.70
2022-07-25T04:26:58.749Z,10.82
2022-07-25T04:32:00.915Z,10.63
2022-07-25T04:37:03.158Z,12.38
2022-07-25T04:42:05.338Z,9.40
2022-07-25T04:47:07.348Z,9.55
2022-07-25T04:52:09.555Z,11.25
2022-07-25T04:57:11.607Z,7.55
2022-07-25T05:02:13.770Z,11.10
2022-07-25T05:07:15.963Z,8.57
2022-07-25T05:12:18.157Z,9.77
2022-07-25T05:17:20.549Z,10.05
2022-07-25T05:22:27.960Z,9.45
2022-07-25T05:27:30.669Z,11.65
2022-07-25T05:32:32.752Z,8.35
2022-07-25T05:37:35.915Z,8.20
2022-07-25T05:42:37.972Z,8.65
2022-07-25T05:47:40.037Z,8.65
2022-07-25T05:52:42.074Z,7.85
2022-07-25T05:57:44.103Z,8.30
2022-07-25T06:02:46.297Z,4.55
2022-07-25T06:07:48.400Z,6.22
2022-07-25T06:12:50.391Z,5.20
2022-07-25T06:17:52.498Z,4.07
2022-07-25T06:22:54.531Z,4.43
2022-07-25T06:27:57.032Z,6.93
2022-07-25T06:32:59.106Z,4.22
2022-07-25T06:38:01.550Z,5.13
2022-07-25T06:43:03.899Z,4.22
2022-07-25T06:48:07.277Z,4.55
2022-07-25T06:53:09.520Z,3.15
2022-07-25T06:58:11.796Z,4.35
2022-07-25T07:03:14.198Z,5.38
2022-07-25T07:08:16.393Z,6.22
2022-07-25T07:13:23.692Z,7.82
2022-07-25T07:18:26.458Z,5.78
2022-07-25T07:23:29.026Z,2.70
2022-07-25T07:28:31.233Z,6.22
2022-07-25T07:33:33.831Z,5.03
2022-07-25T07:38:36.420Z,3.63
2022-07-25T07:43:38.522Z,6.35
2022-07-25T07:48:40.908Z,3.00
2022-07-25T07:54:01.684Z,3.10
2022-07-25T07:59:05.173Z,4.30
2022-07-25T08:04:07.874Z,3.83
2022-07-25T08:09:10.331Z,4.72
2022-07-25T08:14:12.865Z,6.05
2022-07-25T08:19:14.919Z,3.42
2022-07-25T08:24:16.990Z,4.60
2022-07-25T08:29:27.808Z,3.35
2022-07-25T08:48:16.385Z,4.07
2022-07-25T08:53:36.116Z,4.13
2022-07-25T08:58:39.695Z,2.63
2022-07-25T09:03:43.152Z,4.40
2022-07-25T09:08:57.132Z,4.47
2022-07-25T09:14:11.360Z,4.28
2022-07-25T09:19:20.237Z,2.95
2022-07-25T09:24:22.653Z,6.35
2022-07-25T09:29:30.322Z,3.22
2022-07-25T09:34:35.543Z,3.45
2022-07-25T09:39:46.883Z,2.15
2022-07-25T09:45:04.599Z,3.05
2022-07-25T09:50:07.756Z,6.25
2022-07-25T09:55:11.082Z,4.25
2022-07-25T10:00:19.349Z,3.83
2022-07-25T10:05:50.491Z,5.30
2022-07-25T10:10:52.591Z,5.37
2022-07-25T10:15:55.592Z,5.55
2022-07-25T10:21:28.711Z,6.13
2022-07-25T10:26:32.113Z,3.95
2022-07-25T10:31:37.569Z,2.80
2022-07-25T10:36:56.106Z,3.25
2022-07-25T10:42:02.274Z,4.53
2022-07-25T10:47:11.021Z,4.63
2022-07-25T10:52:18.136Z,4.38
2022-07-25T10:57:20.731Z,4.32
2022-07-25T11:02:24.329Z,4.38
2022-07-25T11:07:28.616Z,5.30
2022-07-25T11:12:31.347Z,6.55
2022-07-25T11:17:34.342Z,4.95
2022-07-25T11:22:36.447Z,5.43
2022-07-25T11:27:38.560Z,7.45
2022-07-25T11:32:42.044Z,5.68
2022-07-25T11:37:48.816Z,3.58
2022-07-25T11:42:55.896Z,6.07
2022-07-25T11:48:13.413Z,4.22
2022-07-25T11:53:18.259Z,6.13
2022-07-25T11:58:23.576Z,8.35
2022-07-25T12:03:28.761Z,10.13
2022-07-25T12:08:40.630Z,5.25
2022-07-25T12:13:42.706Z,3.95
2022-07-25T12:18:45.159Z,5.32
2022-07-25T12:23:47.373Z,4.97
2022-07-25T12:28:52.552Z,4.65
2022-07-25T12:33:55.393Z,4.40
2022-07-25T12:38:57.548Z,4.95
2022-07-25T12:44:00.906Z,4.05
2022-07-25T12:49:03.175Z,7.75
2022-07-25T12:54:05.654Z,4.47
2022-07-25T12:59:08.369Z,4.10
2022-07-25T13:04:10.688Z,4.78
2022-07-25T13:09:12.748Z,8.32
2022-07-25T13:14:16.080Z,5.72
2022-07-25T13:19:18.445Z,6.82
2022-07-25T13:24:20.472Z,6.53
2022-07-25T13:29:22.614Z,4.63
2022-07-25T13:34:26.191Z,6.18
2022-07-25T13:39:28.190Z,3.92
2022-07-25T13:44:30.264Z,5.18
2022-07-25T13:49:32.714Z,7.20
2022-07-25T13:54:34.805Z,4.72
2022-07-25T13:59:37.155Z,7.03
2022-07-25T14:04:39.897Z,5.70
2022-07-25T14:09:42.135Z,3.55
2022-07-25T14:14:44.317Z,4.68
2022-07-25T14:19:46.735Z,3.45
2022-07-25T14:24:48.928Z,4.38
2022-07-25T14:29:51.145Z,6.68
2022-07-25T14:34:53.448Z,4.10
2022-07-25T14:39:55.485Z,3.72
2022-07-25T14:44:57.583Z,2.60
2022-07-25T14:50:02.552Z,6.22
2022-07-25T14:55:05.216Z,6.72
2022-07-25T15:00:08.483Z,5.20
2022-07-25T15:05:10.593Z,4.43
2022-07-25T15:10:14.246Z,1.45
2022-07-25T15:15:16.327Z,5.03
2022-07-25T15:20:18.448Z,2.20
2022-07-25T15:26:00.206Z,1.23
2022-07-25T15:30:43.081Z,2.85
2022-07-25T15:35:46.376Z,2.85
2022-07-25T15:40:48.431Z,2.88
2022-07-25T15:45:50.963Z,3.22
2022-07-25T15:50:53.347Z,4.30
2022-07-25T15:55:55.445Z,2.58
2022-07-25T16:00:57.568Z,1.95
2022-07-25T16:05:59.646Z,2.90
2022-07-25T16:11:02.272Z,6.18
2022-07-25T16:16:04.641Z,1.15
2022-07-25T16:21:09.366Z,3.50
2022-07-25T16:26:12.264Z,3.33
2022-07-25T16:31:15.334Z,2.05
2022-07-25T16:36:20.468Z,3.88
2022-07-25T16:41:22.517Z,2.10
2022-07-25T16:46:28.359Z,2.25
2022-07-25T16:51:34.172Z,2.53
2022-07-25T16:56:39.774Z,1.15
2022-07-25T17:01:41.869Z,1.67
2022-07-25T17:06:44.017Z,1.23
2022-07-25T17:11:46.073Z,1.60
2022-07-25T17:16:48.604Z,2.63
2022-07-25T17:21:51.039Z,4.97
2022-07-25T17:26:53.157Z,2.65
2022-07-25T17:31:55.217Z,2.83
2022-07-25T17:36:57.318Z,3.35
2022-07-25T17:42:00.272Z,4.18
2022-07-25T17:47:03.437Z,6.35
2022-07-25T17:52:05.594Z,5.32
2022-07-25T17:57:08.141Z,3.15
2022-07-25T18:02:10.390Z,5.07
2022-07-25T18:07:12.533Z,7.07
2022-07-25T18:12:14.673Z,4.65
2022-07-25T18:17:16.820Z,3.15
2022-07-25T18:22:18.867Z,2.28
2022-07-25T18:27:22.064Z,2.28
2022-07-25T18:32:24.109Z,1.58
2022-07-25T18:37:26.227Z,2.88
2022-07-25T18:42:30.596Z,2.92
2022-07-25T18:47:34.818Z,2.25
2022-07-25T18:52:37.470Z,3.10
2022-07-25T18:57:39.550Z,3.33
2022-07-25T19:02:41.834Z,4.75
2022-07-25T19:07:44.014Z,4.35
2022-07-25T19:12:46.084Z,2.00
2022-07-25T19:17:48.562Z,2.42
2022-07-25T19:22:51.138Z,7.40
2022-07-25T19:27:53.899Z,1.88
2022-07-25T19:32:56.285Z,2.75
2022-07-25T19:37:58.393Z,2.17
2022-07-25T19:43:01.527Z,3.53
2022-07-25T19:48:03.724Z,3.30
2022-07-25T19:53:06.176Z,4.25
2022-07-25T19:58:10.860Z,4.85
2022-07-25T20:03:12.900Z,3.65
2022-07-25T20:08:16.215Z,4.75
2022-07-25T20:13:18.312Z,3.17
2022-07-25T20:18:20.393Z,4.75
2022-07-25T20:23:23.884Z,3.25
2022-07-25T20:28:26.027Z,4.28
2022-07-25T20:33:28.429Z,1.85
2022-07-25T20:38:32.218Z,4.43
2022-07-25T20:43:34.585Z,3.83
2022-07-25T20:48:37.050Z,4.07
2022-07-25T20:53:41.684Z,5.68
2022-07-25T20:58:43.773Z,2.45
2022-07-25T21:03:45.894Z,3.67
2022-07-25T21:08:48.068Z,2.22
2022-07-25T21:13:50.548Z,3.25
2022-07-25T21:18:55.840Z,5.13
2022-07-25T21:23:57.985Z,3.38
2022-07-25T21:29:00.574Z,3.50
2022-07-25T21:34:03.182Z,3.15
2022-07-25T21:39:05.452Z,4.78
2022-07-25T21:44:07.905Z,3.47
2022-07-25T21:49:40.632Z,6.35
2022-07-25T21:54:44.488Z,6.13
2022-07-25T21:59:46.731Z,4.65
2022-07-25T22:04:50.053Z,3.38
2022-07-25T22:09:52.074Z,5.47
2022-07-25T22:14:54.453Z,5.63
2022-07-25T22:19:56.507Z,3.35
2022-07-25T22:24:58.686Z,5.32
2022-07-25T22:30:00.859Z,4.20
2022-07-25T22:35:03.103Z,7.05
2022-07-25T22:40:06.721Z,5.68
2022-07-25T22:45:09.279Z,5.18
2022-07-25T22:50:11.342Z,4.13
2022-07-25T22:55:13.494Z,6.97
2022-07-25T23:00:16.458Z,6.50
2022-07-25T23:05:18.887Z,4.68
2022-07-25T23:10:21.048Z,4.20
2022-07-25T23:15:23.217Z,6.88
2022-07-25T23:20:28.883Z,11.50
2022-07-25T23:25:31.250Z,6.32
2022-07-25T23:30:39.769Z,3.45
2022-07-25T23:35:42.471Z,5.68
2022-07-25T23:40:45.727Z,9.45
2022-07-25T23:45:47.846Z,6.28
2022-07-25T23:50:49.977Z,4.88
2022-07-25T23:55:52.120Z,5.13
